Climatologie pour Saint-Brevin les Pins
Jour • Résumé pour janvier 5, 2018 Système :  Métrique    Anglais   Mixte
« - 1 jour
+ 1 jour »
Jour Semaine Mois Année Personnalisé
  Maximum : Minimum : Moyenne :
Température sous abri : -17.8 °C -13.2 °C -12.3 °C
Point de rosée : -17.8 °C -14.2 °C -12.9 °C
Humidité : Humidity % 83 % 92 %
Vitesse du vent : 0 km/h 0 km/h 12.7 km/h
Rafale : 0 km/h - -
Direction :- - WSW
Pression : 0 hPa 33880.3 hPa -
Précipitations : 63.5 mm    
Historical Graphs
 
 
Tableau de données pour janvier 5, 2018
Heure Tempé Pt rosée Pression Vent Vitesse Rafale Humidité Taux pluie (/hr) Soleil
-17.8 °C -17.8 °C 0 hPa Calm     Humidity % 0 mm SolarRadiationWatts/m^2 W/m2 Conditions
00:00 -11.5 °C -11.8 °C 34029.3 hPa West 25.9 km/h 36.2 km/h 97 % 0 mm 0 W/m2
00:05 -11.5 °C -11.8 °C 34029.3 hPa WSW 10.3 km/h 36.2 km/h 97 % 0 mm 0 W/m2
00:15 -11.5 °C -11.7 °C 34029.3 hPa WSW 20.8 km/h 28.5 km/h 97 % 0 mm 0 W/m2
00:25 -11.4 °C -11.7 °C 34029.3 hPa SSW 18.2 km/h 38.8 km/h 97 % 0 mm 0 W/m2
00:30 -11.4 °C -11.7 °C 34015.8 hPa SW 20.8 km/h 38.8 km/h 97 % 0 mm 0 W/m2
00:35 -11.4 °C -11.7 °C 34015.8 hPa West 23.3 km/h 41.4 km/h 97 % 0 mm 0 W/m2
00:50 -11.4 °C -11.7 °C 34005.6 hPa WSW 15.6 km/h 38.8 km/h 97 % 0 mm 0 W/m2
00:55 -11.4 °C -11.7 °C 34005.6 hPa West 25.9 km/h 38.8 km/h 97 % 0 mm 0 W/m2
01:10 -11.4 °C -11.7 °C 33992.1 hPa WSW 25.9 km/h 36.2 km/h 97 % 0 mm 0 W/m2
01:15 -11.3 °C -11.6 °C 33992.1 hPa WSW 7.7 km/h 33.6 km/h 97 % 0 mm 0 W/m2
01:25 -11.3 °C -11.6 °C 33992.1 hPa SW 33.6 km/h 33.6 km/h 97 % 0 mm 0 W/m2
01:35 -11.3 °C -11.6 °C 33992.1 hPa West 15.6 km/h 41.4 km/h 97 % 12.7 mm 0 W/m2
01:40 -11.3 °C -11.6 °C 34005.6 hPa NW 25.9 km/h 41.4 km/h 97 % 12.7 mm 0 W/m2
01:45 -11.6 °C -11.9 °C 33992.1 hPa NW 20.8 km/h 41.4 km/h 96 % 20.32 mm 0 W/m2
01:55 -11.8 °C -12.2 °C 33992.1 hPa WNW 18.2 km/h 31.1 km/h 96 % 20.32 mm 0 W/m2
02:00 -11.9 °C -12.3 °C 33992.1 hPa WNW 15.6 km/h 31.1 km/h 96 % 20.32 mm 0 W/m2
02:05 -12 °C -12.3 °C 33992.1 hPa NW 25.9 km/h 33.6 km/h 96 % 20.32 mm 0 W/m2
02:10 -12.1 °C -12.4 °C 33992.1 hPa WNW 10.3 km/h 33.6 km/h 96 % 20.32 mm 0 W/m2
02:15 -12.1 °C -12.4 °C 33992.1 hPa WNW 18.2 km/h 31.1 km/h 96 % 20.32 mm 0 W/m2
02:20 -12.2 °C -12.6 °C 33992.1 hPa WSW 15.6 km/h 31.1 km/h 96 % 20.32 mm 0 W/m2
02:25 -12.2 °C -12.6 °C 33981.9 hPa West 10.3 km/h 31.1 km/h 96 % 20.32 mm 0 W/m2
02:35 -12.3 °C -12.6 °C 33981.9 hPa WSW 10.3 km/h 31.1 km/h 96 % 12.7 mm 0 W/m2
02:50 -12.3 °C -12.6 °C 33971.7 hPa WSW 5.1 km/h 20.8 km/h 96 % 12.7 mm 0 W/m2
02:55 -12.3 °C -12.7 °C 33971.7 hPa WSW 5.1 km/h 15.6 km/h 96 % 12.7 mm 0 W/m2
03:00 -12.3 °C -12.6 °C 33971.7 hPa WNW 2.6 km/h 15.6 km/h 96 % 12.7 mm 0 W/m2
03:05 -12.3 °C -12.6 °C 33958.2 hPa Calm   18.2 km/h 96 % 12.7 mm 0 W/m2
03:15 -12.3 °C -12.6 °C 33948 hPa WSW 7.7 km/h 12.9 km/h 96 % 12.7 mm 0 W/m2
03:20 -12.3 °C -12.6 °C 33948 hPa WSW 7.7 km/h 12.9 km/h 96 % 12.7 mm 0 W/m2
03:30 -12.3 °C -12.6 °C 33937.9 hPa Calm   7.7 km/h 96 % 20.32 mm 0 W/m2
03:40 -12.3 °C -12.5 °C 33937.9 hPa SW 7.7 km/h 18.2 km/h 97 % 12.7 mm 0 W/m2
03:50 -12.2 °C -12.5 °C 33937.9 hPa SW 2.6 km/h 15.6 km/h 97 % 7.62 mm 0 W/m2
03:55 -12.2 °C -12.5 °C 33924.3 hPa WSW 7.7 km/h 18.2 km/h 97 % 7.62 mm 0 W/m2
04:05 -12.2 °C -12.5 °C 33937.9 hPa WSW 7.7 km/h 20.8 km/h 97 % 7.62 mm 0 W/m2
04:10 -12.2 °C -12.5 °C 33937.9 hPa SW 7.7 km/h 18.2 km/h 97 % 7.62 mm 0 W/m2
04:20 -12.2 °C -12.5 °C 33937.9 hPa WSW 18.2 km/h 25.9 km/h 97 % 7.62 mm 0 W/m2
04:25 -12.3 °C -12.5 °C 33937.9 hPa WSW 12.9 km/h 31.1 km/h 97 % 7.62 mm 0 W/m2
04:35 -12.3 °C -12.5 °C 33924.3 hPa WSW 12.9 km/h 25.9 km/h 97 % 0 mm 0 W/m2
04:40 -12.3 °C -12.6 °C 33924.3 hPa WSW 12.9 km/h 23.3 km/h 97 % 0 mm 0 W/m2
04:45 -12.3 °C -12.6 °C 33924.3 hPa WSW 12.9 km/h 23.3 km/h 97 % 0 mm 0 W/m2
04:50 -12.3 °C -12.6 °C 33914.2 hPa WSW 7.7 km/h 23.3 km/h 97 % 0 mm 0 W/m2
04:55 -12.3 °C -12.6 °C 33914.2 hPa WSW 12.9 km/h 23.3 km/h 97 % 0 mm 0 W/m2
05:00 -12.3 °C -12.6 °C 33914.2 hPa SW 12.9 km/h 23.3 km/h 97 % 0 mm 0 W/m2
05:05 -12.3 °C -12.6 °C 33914.2 hPa West 7.7 km/h 25.9 km/h 97 % 0 mm 0 W/m2
05:15 -12.3 °C -12.6 °C 33900.6 hPa WSW 15.6 km/h 25.9 km/h 97 % 0 mm 0 W/m2
05:20 -12.3 °C -12.6 °C 33914.2 hPa WSW 7.7 km/h 31.1 km/h 97 % 0 mm 0 W/m2
05:30 -12.3 °C -12.6 °C 33914.2 hPa West 7.7 km/h 33.6 km/h 97 % 0 mm 0 W/m2
05:40 -12.3 °C -12.5 °C 33914.2 hPa WSW 18.2 km/h 31.1 km/h 97 % 0 mm 0 W/m2
05:45 -12.2 °C -12.5 °C 33914.2 hPa WSW 23.3 km/h 31.1 km/h 97 % 0 mm 0 W/m2
05:50 -12.3 °C -12.5 °C 33914.2 hPa West 10.3 km/h 28.5 km/h 97 % 0 mm 0 W/m2
05:55 -12.2 °C -12.5 °C 33914.2 hPa SW 15.6 km/h 25.9 km/h 97 % 0 mm 0 W/m2
06:00 -12.2 °C -12.5 °C 33914.2 hPa West 10.3 km/h 28.5 km/h 97 % 0 mm 0 W/m2
06:05 -12.2 °C -12.4 °C 33914.2 hPa SSW 7.7 km/h 28.5 km/h 97 % 0 mm 0 W/m2
06:10 -12.2 °C -12.4 °C 33914.2 hPa SW 12.9 km/h 23.3 km/h 97 % 0 mm 0 W/m2
06:15 -12.2 °C -12.4 °C 33914.2 hPa WSW 12.9 km/h 31.1 km/h 97 % 0 mm 0 W/m2
06:20 -12.1 °C -12.4 °C 33914.2 hPa WSW 10.3 km/h 31.1 km/h 97 % 0 mm 0 W/m2
06:35 -12.1 °C -12.4 °C 33914.2 hPa WSW 25.9 km/h 28.5 km/h 97 % 0 mm 0 W/m2
06:40 -12.1 °C -12.4 °C 33914.2 hPa WSW 12.9 km/h 31.1 km/h 97 % 0 mm 0 W/m2
06:45 -12.1 °C -12.3 °C 33900.6 hPa SW 23.3 km/h 33.6 km/h 97 % 0 mm 0 W/m2
06:50 -12.1 °C -12.3 °C 33900.6 hPa WSW 18.2 km/h 33.6 km/h 97 % 0 mm 0 W/m2
07:00 -12.1 °C -12.3 °C 33914.2 hPa WSW 5.1 km/h 33.6 km/h 97 % 0 mm 0 W/m2
07:05 -12.1 °C -12.3 °C 33900.6 hPa West 12.9 km/h 33.6 km/h 97 % 0 mm 0 W/m2
07:15 -12.1 °C -12.3 °C 33900.6 hPa West 5.1 km/h 28.5 km/h 97 % 0 mm 0 W/m2
07:20 -12.1 °C -12.3 °C 33900.6 hPa WSW 12.9 km/h 31.1 km/h 97 % 0 mm 0 W/m2
07:25 -12.1 °C -12.3 °C 33900.6 hPa WSW 10.3 km/h 31.1 km/h 97 % 0 mm 0 W/m2
07:35 -12.1 °C -12.3 °C 33900.6 hPa SW 15.6 km/h 28.5 km/h 97 % 0 mm 0 W/m2
07:40 -12.1 °C -12.3 °C 33900.6 hPa SW 2.6 km/h 31.1 km/h 97 % 0 mm 0 W/m2
07:45 -12.1 °C -12.3 °C 33900.6 hPa WNW 7.7 km/h 31.1 km/h 97 % 0 mm 0 W/m2
07:55 -12.1 °C -12.3 °C 33900.6 hPa West 25.9 km/h 38.8 km/h 97 % 0 mm 0 W/m2
08:00 -12.1 °C -12.3 °C 33900.6 hPa WSW 18.2 km/h 36.2 km/h 97 % 0 mm 0 W/m2
08:05 -12 °C -12.3 °C 33890.5 hPa West 20.8 km/h 36.2 km/h 97 % 0 mm 0 W/m2
08:10 -12 °C -12.3 °C 33890.5 hPa WSW 15.6 km/h 38.8 km/h 97 % 0 mm 0 W/m2
08:20 -12.1 °C -12.3 °C 33890.5 hPa WSW 12.9 km/h 28.5 km/h 97 % 0 mm 0 W/m2
08:30 -12.1 °C -12.3 °C 33890.5 hPa WSW 7.7 km/h 38.8 km/h 97 % 0 mm 0 W/m2
08:40 -12.1 °C -12.4 °C 33900.6 hPa NW 7.7 km/h 25.9 km/h 97 % 0 mm 0 W/m2
08:45 -12.2 °C -12.4 °C 33900.6 hPa West 2.6 km/h 28.5 km/h 97 % 0 mm 0 W/m2
08:55 -12.3 °C -12.5 °C 33900.6 hPa WSW 12.9 km/h 28.5 km/h 97 % 0 mm 0 W/m2
09:00 -12.3 °C -12.5 °C 33890.5 hPa SW 12.9 km/h 28.5 km/h 97 % 0 mm 0 W/m2
09:05 -12.3 °C -12.5 °C 33890.5 hPa WSW 7.7 km/h 28.5 km/h 97 % 0 mm 0 W/m2
09:15 -12.2 °C -12.5 °C 33900.6 hPa WSW 18.2 km/h 28.5 km/h 97 % 0 mm 5 W/m2
09:40 -12.1 °C -12.3 °C 33914.2 hPa WSW 12.9 km/h 36.2 km/h 97 % 0 mm 16 W/m2
09:50 -12.1 °C -12.3 °C 33900.6 hPa WSW 7.7 km/h 33.6 km/h 97 % 0 mm 19 W/m2
09:55 -12.1 °C -12.3 °C 33900.6 hPa WSW 25.9 km/h 31.1 km/h 97 % 0 mm 28 W/m2
10:05 -12.2 °C -12.5 °C 33900.6 hPa West 12.9 km/h 46.7 km/h 96 % 0 mm 42 W/m2
10:10 -12.2 °C -12.6 °C 33900.6 hPa West 28.5 km/h 41.4 km/h 96 % 0 mm 54 W/m2
10:20 -12.3 °C -12.7 °C 33914.2 hPa WSW 23.3 km/h 41.4 km/h 96 % 0 mm 51 W/m2
10:25 -12.3 °C -12.7 °C 33900.6 hPa West 15.6 km/h 33.6 km/h 96 % 0 mm 60 W/m2
10:30 -12.2 °C -12.7 °C 33914.2 hPa SW 25.9 km/h 33.6 km/h 95 % 0 mm 63 W/m2
10:35 -12.1 °C -12.6 °C 33914.2 hPa SW 15.6 km/h 33.6 km/h 95 % 0 mm 77 W/m2
10:40 -12.1 °C -12.5 °C 33914.2 hPa WSW 28.5 km/h 46.7 km/h 95 % 0 mm 88 W/m2
10:45 -12.1 °C -12.4 °C 33914.2 hPa WSW 18.2 km/h 46.7 km/h 95 % 0 mm 93 W/m2
10:55 -12 °C -12.4 °C 33914.2 hPa West 20.8 km/h 44.1 km/h 95 % 0 mm 91 W/m2
11:05 -11.8 °C -12.4 °C 33914.2 hPa WNW 10.3 km/h 41.4 km/h 93 % 0 mm 33 W/m2
11:15 -11.8 °C -12.4 °C 33924.3 hPa NW 23.3 km/h 36.2 km/h 93 % 0 mm 72 W/m2
11:40 -11.9 °C -12.7 °C 33924.3 hPa SW 5.1 km/h 28.5 km/h 91 % 0 mm 139 W/m2
11:50 -11.8 °C -12.7 °C 33924.3 hPa West 12.9 km/h 28.5 km/h 90 % 0 mm 142 W/m2
11:55 -11.8 °C -12.7 °C 33924.3 hPa West 12.9 km/h 28.5 km/h 90 % 0 mm 128 W/m2
12:05 -11.8 °C -12.9 °C 33924.3 hPa WNW 5.1 km/h 33.6 km/h 88 % 0 mm 193 W/m2
12:10 -11.8 °C -12.9 °C 33924.3 hPa WNW 7.7 km/h 33.6 km/h 87 % 0 mm 178 W/m2
12:20 -11.7 °C -12.8 °C 33924.3 hPa WNW 12.9 km/h 25.9 km/h 87 % 0 mm 188 W/m2
12:25 -11.6 °C -12.7 °C 33924.3 hPa West 12.9 km/h 25.9 km/h 88 % 0 mm 185 W/m2
12:35 -11.5 °C -12.6 °C 33924.3 hPa West 20.8 km/h 25.9 km/h 88 % 0 mm 172 W/m2
12:55 -11.6 °C -12.8 °C 33924.3 hPa WSW 10.3 km/h 25.9 km/h 87 % 0 mm 195 W/m2
13:00 -11.6 °C -12.8 °C 33924.3 hPa West 7.7 km/h 23.3 km/h 87 % 0 mm 160 W/m2
13:10 -11.7 °C -12.9 °C 33914.2 hPa NW 7.7 km/h 25.9 km/h 86 % 0 mm 130 W/m2
13:20 -11.7 °C -12.9 °C 33924.3 hPa West 12.9 km/h 28.5 km/h 86 % 0 mm 93 W/m2
13:40 -11.7 °C -13 °C 33924.3 hPa West 2.6 km/h 25.9 km/h 86 % 0 mm 179 W/m2
13:55 -11.6 °C -13 °C 33914.2 hPa WNW 7.7 km/h 20.8 km/h 85 % 0 mm 158 W/m2
14:00 -11.7 °C -13.1 °C 33914.2 hPa WSW 10.3 km/h 25.9 km/h 84 % 0 mm 165 W/m2
14:10 -11.8 °C -13.3 °C 33924.3 hPa SSW 12.9 km/h 28.5 km/h 83 % 0 mm 128 W/m2
14:20 -11.8 °C -13.2 °C 33924.3 hPa WSW 20.8 km/h 28.5 km/h 84 % 0 mm 135 W/m2
14:25 -11.8 °C -13.3 °C 33924.3 hPa West 10.3 km/h 31.1 km/h 83 % 0 mm 135 W/m2
14:35 -11.8 °C -13.2 °C 33914.2 hPa WSW 12.9 km/h 25.9 km/h 84 % 0 mm 171 W/m2
14:45 -11.7 °C -13.1 °C 33914.2 hPa West 15.6 km/h 25.9 km/h 84 % 0 mm 141 W/m2
14:50 -11.7 °C -13.1 °C 33900.6 hPa NW 15.6 km/h 25.9 km/h 84 % 0 mm 188 W/m2
14:55 -11.6 °C -13.1 °C 33900.6 hPa WSW 20.8 km/h 25.9 km/h 84 % 0 mm 274 W/m2
15:05 -11.6 °C -13.1 °C 33900.6 hPa West 7.7 km/h 25.9 km/h 84 % 0 mm 127 W/m2
15:10 -11.7 °C -13.1 °C 33900.6 hPa WSW 12.9 km/h 23.3 km/h 85 % 0 mm 76 W/m2
15:15 -11.8 °C -13.1 °C 33900.6 hPa West 15.6 km/h 23.3 km/h 86 % 0 mm 63 W/m2
15:20 -11.9 °C -13.1 °C 33900.6 hPa SSW 10.3 km/h 20.8 km/h 87 % 0 mm 88 W/m2
15:30 -11.9 °C -12.9 °C 33900.6 hPa SW 12.9 km/h 20.8 km/h 88 % 0 mm 88 W/m2
15:45 -11.8 °C -13 °C 33900.6 hPa SW 18.2 km/h 20.8 km/h 87 % 0 mm 183 W/m2
15:55 -11.8 °C -13 °C 33900.6 hPa West 15.6 km/h 25.9 km/h 87 % 0 mm 81 W/m2
16:05 -11.9 °C -13.2 °C 33890.5 hPa WSW 12.9 km/h 23.3 km/h 86 % 0 mm 74 W/m2
16:15 -12 °C -13.1 °C 33890.5 hPa WSW 5.1 km/h 28.5 km/h 87 % 0 mm 83 W/m2
16:25 -12.1 °C -13.3 °C 33890.5 hPa WSW 7.7 km/h 20.8 km/h 86 % 0 mm 39 W/m2
16:30 -12.2 °C -13.3 °C 33890.5 hPa WSW 12.9 km/h 23.3 km/h 87 % 0 mm 51 W/m2
16:50 -12.1 °C -13.2 °C 33890.5 hPa SSW 7.7 km/h 23.3 km/h 87 % 0 mm 40 W/m2
16:55 -12.1 °C -13.3 °C 33880.3 hPa SW 10.3 km/h 18.2 km/h 87 % 0 mm 28 W/m2
17:00 -12.2 °C -13.2 °C 33880.3 hPa WSW 5.1 km/h 18.2 km/h 88 % 0 mm 21 W/m2
17:05 -12.2 °C -13.2 °C 33880.3 hPa Calm   18.2 km/h 88 % 0 mm 12 W/m2
17:10 -12.2 °C -13.3 °C 33880.3 hPa Calm   20.8 km/h 88 % 0 mm 12 W/m2
17:15 -12.3 °C -13.3 °C 33880.3 hPa SSW 2.6 km/h 20.8 km/h 88 % 0 mm 12 W/m2
17:25 -12.3 °C -13.4 °C 33880.3 hPa SW 7.7 km/h 18.2 km/h 88 % 0 mm 5 W/m2
17:30 -12.3 °C -13.4 °C 33890.5 hPa SW 7.7 km/h 18.2 km/h 88 % 0 mm 0 W/m2
17:35 -12.4 °C -13.4 °C 33880.3 hPa SSW 5.1 km/h 23.3 km/h 88 % 0 mm 0 W/m2
17:50 -12.4 °C -13.4 °C 33890.5 hPa SW 10.3 km/h 23.3 km/h 89 % 0 mm 0 W/m2
18:00 -12.4 °C -13.4 °C 33880.3 hPa SW 12.9 km/h 25.9 km/h 88 % 0 mm 0 W/m2
18:15 -12.8 °C -13.7 °C 33900.6 hPa West 20.8 km/h 51.8 km/h 89 % 20.32 mm 0 W/m2
18:20 -12.9 °C -13.8 °C 33890.5 hPa West 15.6 km/h 36.2 km/h 89 % 20.32 mm 0 W/m2
18:30 -13.1 °C -13.9 °C 33890.5 hPa SW 7.7 km/h 25.9 km/h 90 % 20.32 mm 0 W/m2
18:35 -13.1 °C -13.9 °C 33890.5 hPa SW 7.7 km/h 25.9 km/h 90 % 20.32 mm 0 W/m2
18:40 -13.1 °C -14 °C 33890.5 hPa SSW 5.1 km/h 20.8 km/h 90 % 20.32 mm 0 W/m2
18:45 -13.2 °C -13.9 °C 33890.5 hPa SW 7.7 km/h 15.6 km/h 91 % 20.32 mm 0 W/m2
18:50 -13.2 °C -13.9 °C 33890.5 hPa SSW 5.1 km/h 18.2 km/h 91 % 25.4 mm 0 W/m2
18:55 -13.2 °C -13.9 °C 33880.3 hPa SW 7.7 km/h 18.2 km/h 91 % 25.4 mm 0 W/m2
19:05 -13.2 °C -13.8 °C 33880.3 hPa SW 12.9 km/h 25.9 km/h 92 % 12.7 mm 0 W/m2
19:10 -13.1 °C -13.8 °C 33880.3 hPa SW 7.7 km/h 31.1 km/h 92 % 12.7 mm 0 W/m2
19:25 -12.9 °C -13.5 °C 33880.3 hPa West 15.6 km/h 41.4 km/h 93 % 7.62 mm 0 W/m2
19:30 -12.9 °C -13.5 °C 33890.5 hPa SW 15.6 km/h 38.8 km/h 93 % 7.62 mm 0 W/m2
19:40 -12.9 °C -13.6 °C 33880.3 hPa West 15.6 km/h 41.4 km/h 92 % 7.62 mm 0 W/m2
19:45 -12.9 °C -13.6 °C 33890.5 hPa WNW 25.9 km/h 41.4 km/h 92 % 7.62 mm 0 W/m2
19:55 -12.9 °C -13.6 °C 33880.3 hPa WSW 10.3 km/h 33.6 km/h 92 % 0 mm 0 W/m2
20:05 -12.9 °C -13.6 °C 33880.3 hPa West 5.1 km/h 36.2 km/h 92 % 0 mm 0 W/m2
20:10 -12.9 °C -13.7 °C 33890.5 hPa West 15.6 km/h 41.4 km/h 91 % 0 mm 0 W/m2
20:15 -12.9 °C -13.7 °C 33890.5 hPa WNW 18.2 km/h 41.4 km/h 91 % 0 mm 0 W/m2
20:40 -13 °C -14 °C 33890.5 hPa WNW 12.9 km/h 36.2 km/h 89 % 0 mm 0 W/m2
20:55 -13 °C -13.9 °C 33890.5 hPa West 12.9 km/h 28.5 km/h 89 % 0 mm 0 W/m2
21:05 -12.9 °C -13.9 °C 33890.5 hPa WSW 25.9 km/h 36.2 km/h 89 % 0 mm 0 W/m2
21:10 -12.9 °C -13.9 °C 33890.5 hPa West 12.9 km/h 36.2 km/h 89 % 0 mm 0 W/m2
21:15 -12.9 °C -13.9 °C 33890.5 hPa WSW 7.7 km/h 36.2 km/h 89 % 0 mm 0 W/m2
21:20 -12.9 °C -14 °C 33890.5 hPa West 20.8 km/h 38.8 km/h 88 % 0 mm 0 W/m2
21:30 -12.9 °C -14 °C 33890.5 hPa West 2.6 km/h 28.5 km/h 88 % 0 mm 0 W/m2
21:35 -12.9 °C -14 °C 33890.5 hPa WSW 18.2 km/h 31.1 km/h 88 % 0 mm 0 W/m2
21:40 -12.9 °C -13.9 °C 33890.5 hPa WSW 12.9 km/h 31.1 km/h 88 % 0 mm 0 W/m2
21:45 -12.9 °C -13.9 °C 33890.5 hPa SW 10.3 km/h 28.5 km/h 88 % 0 mm 0 W/m2
21:50 -12.9 °C -13.9 °C 33890.5 hPa SW 10.3 km/h 28.5 km/h 88 % 0 mm 0 W/m2
21:55 -12.9 °C -13.9 °C 33900.6 hPa SW 10.3 km/h 28.5 km/h 88 % 0 mm 0 W/m2
22:00 -12.9 °C -13.9 °C 33890.5 hPa West 23.3 km/h 28.5 km/h 88 % 0 mm 0 W/m2
22:05 -12.9 °C -13.9 °C 33900.6 hPa West 12.9 km/h 31.1 km/h 88 % 0 mm 0 W/m2
22:10 -12.9 °C -13.9 °C 33900.6 hPa West 28.5 km/h 31.1 km/h 88 % 0 mm 0 W/m2
22:20 -12.9 °C -14.1 °C 33900.6 hPa West 10.3 km/h 44.1 km/h 86 % 0 mm 0 W/m2
22:35 -12.8 °C -14.1 °C 33900.6 hPa West 7.7 km/h 31.1 km/h 85 % 0 mm 0 W/m2
22:40 -12.8 °C -14.1 °C 33900.6 hPa West 10.3 km/h 31.1 km/h 85 % 0 mm 0 W/m2
22:50 -12.7 °C -14 °C 33900.6 hPa WNW 15.6 km/h 25.9 km/h 86 % 0 mm 0 W/m2
23:10 -12.7 °C -13.9 °C 33914.2 hPa West 10.3 km/h 20.8 km/h 87 % 0 mm 0 W/m2
23:15 -12.8 °C -13.9 °C 33914.2 hPa WSW 5.1 km/h 18.2 km/h 87 % 0 mm 0 W/m2
23:30 -12.9 °C -14.1 °C 33914.2 hPa NW 2.6 km/h 15.6 km/h 87 % 0 mm 0 W/m2
23:35 -13 °C -14.1 °C 33914.2 hPa WSW 2.6 km/h 15.6 km/h 87 % 0 mm 0 W/m2
23:45 -13.1 °C -14.2 °C 33914.2 hPa SW 10.3 km/h 20.8 km/h 87 % 0 mm 0 W/m2
23:50 -13.1 °C -14.2 °C 33914.2 hPa WSW 12.9 km/h 20.8 km/h 88 % 0 mm 0 W/m2
Avec l'autorisation de Weather Underground - 1.25 mb